Terminal Aerodrome Forecast
Issued by NWS

Home | Current Version | Previous Version | Text Only | Print | Product List | Glossary On
Versions: 1 2 3 4 5 6 7 8 9 10 11 12 13 14 15 16 17
000
FTUS41 KPBZ 251137
TAFBVI
TAF
KBVI 251137Z 2512/2612 07005KT P6SM OVC050
      TEMPO 2512/2514 6SM -RASN BKN015
     FM252200 09005KT P6SM -SHRA OVC035
     FM260400 VRB05KT P6SM OVC080
     FM260800 VRB05KT P6SM SCT080=

USA.gov is the U.S. government's official web portal to all federal, state and local government web resources and services.